world map with GEL marked

GEL - Airport

This information may not be accurate or current and is not valid for navigation or flight planning. No warranty of fitness for any purpose is made or implied.

flag of Rio Grande do Sulflag of Brazil

Donate via PayPal

Additional information is available on the NEW Great Circle Mapper

Location
City:  Santo Āngelo, Rio Grande do Sul, Brazil
ICAO / IATA:SBNM / GEL

Details
Type:Airport (Aerodrome, Airfield)
Latitude:28°16'54"S (-28.281682)
Longitude:54°10'09"W (-54.169138)
Datum:WGS 1984
Elevation:1056 ft (322 m)
Runways:1
Longest:5332 × 98 ft (1625 × 30 m)

Time
Timezone:UTC+31:08 (DST+34:08)
Local Time:

Weather
METAR:SBNM  041400Z 10020KT 9999 SCT020 23/17 Q1019

Related Locations
Nearby:
Farthest:AGJ: 12290 mi / 19779 km
Aguni [Aguni Airport], Aguni Island, 47, JP

Find:

   beyond  
but within

Other Information
Maps:
Sources:

  


 


Great Circle Mapper   Great Circle Mapper
Great Circle Mapper FAQ   Great Circle Mapper FAQ
  Karl's Home Page
KLS²   KLS² Home
   GC on Facebook
Airlines of the World   Airlines of the World
Donate via PayPal


Copyright © 2004-2020, Karl L. Swartz. All rights reserved.
All trademarks mentioned herein belong to their respective owners.

Please see credits for attribution and copyright information.

Karl Swartz <karl@kls2.com>
  Powered by FreeBSD
Valid HTML 4.01!
Labeled with ICRA
hCard Microformat
Geo Microformat